KCVS/CVS METAR and TAF weather

Enter ICAO airport designator
Station Type Date Time Source
KCVS METAR 2020/09/26 17:58 UTC NOAA

KCVS 261758Z AUTO 28010KT 10SM CLR 32/00 A2993 RMK AO2 SLP070 T03240004 10324 20156 58009 $


Station Type Date Time Source
KCVS Decoded METAR 2020/09/26 17:58 UTC NOAA

Cannon Air Force Base / Clovis, NM, United States (KCVS) 34-23N 103-19W
Sep 26, 2020 - 01:58 PM EDT / 2020.09.26 1758 UTC
Wind: from the W (280 degrees) at 12 MPH (10 KT):0
Visibility: 10 mile(s):0
Sky conditions: clear
Temperature: 90.3 F (32.4 C)
Dew Point: 32.7 F (0.4 C)
Relative Humidity: 12%
Pressure (altimeter): 29.93 in. Hg (1013 hPa)
Pressure tendency: 0.03 inches (0.9 hPa) lower than three hours ago
ob: KCVS 261758Z AUTO 28010KT 10SM CLR 32/00 A2993 RMK AO2 SLP070 T03240004 10324 20156 58009
cycle: 18

Station Type Date Time Source
KCVS TAF 2020/09/26 23:13 UTC NOAA

TAF
AMD KCVS 252300Z 2523/2624 25007KT 9999 SKC QNH2993INS WMD VRB06KT AFT 2601
BECMG 2602/2603 VRB06KT 9999 SKC WS015/22030KT QNH2994INS
BECMG 2607/2608 26007KT 9999 SKC QNH2995INS TX34/2523Z TN16/2612Z LAST NO
AMDS AFT 2600 NEXT 2618

Example: see airport list